createdAt,value
2023-01-05T00:01:12.629Z,4.40
2023-01-05T00:03:40.214Z,4.87
2023-01-05T00:06:12.440Z,4.57
2023-01-05T00:08:40.614Z,4.90
2023-01-05T00:11:12.486Z,5.00
2023-01-05T00:13:40.019Z,4.93
2023-01-05T00:16:16.458Z,3.90
2023-01-05T00:18:44.053Z,5.37
2023-01-05T00:21:15.428Z,4.60
2023-01-05T00:23:44.936Z,4.20
2023-01-05T00:26:12.425Z,4.93
2023-01-05T00:28:40.020Z,4.10
2023-01-05T00:31:10.459Z,4.93
2023-01-05T00:33:38.036Z,4.03
2023-01-05T00:36:09.670Z,4.40
2023-01-05T00:38:37.260Z,4.83
2023-01-05T00:41:04.850Z,4.97
2023-01-05T00:43:32.437Z,4.20
2023-01-05T00:46:00.108Z,4.97
2023-01-05T00:48:30.538Z,3.90
2023-01-05T00:50:58.130Z,4.93
2023-01-05T00:53:25.737Z,4.30
2023-01-05T00:55:57.447Z,3.80
2023-01-05T00:58:25.014Z,4.90
2023-01-05T01:00:52.609Z,5.03
2023-01-05T01:03:20.334Z,4.40
2023-01-05T01:05:56.493Z,4.90
2023-01-05T01:08:24.098Z,4.47
2023-01-05T01:10:51.668Z,4.47
2023-01-05T01:13:19.273Z,3.93
2023-01-05T01:15:49.221Z,4.60
2023-01-05T01:18:16.790Z,4.60
2023-01-05T01:20:44.300Z,3.60
2023-01-05T01:23:14.688Z,4.40
2023-01-05T01:25:42.241Z,4.40
2023-01-05T01:28:09.755Z,4.70
2023-01-05T01:30:40.236Z,3.40
2023-01-05T01:33:07.809Z,4.43
2023-01-05T01:35:37.609Z,3.90
2023-01-05T01:38:05.480Z,4.37
2023-01-05T01:40:38.700Z,4.93
2023-01-05T01:43:16.703Z,4.83
2023-01-05T01:45:45.527Z,4.50
2023-01-05T01:48:17.568Z,4.83
2023-01-05T01:50:48.531Z,5.47
2023-01-05T01:53:18.939Z,5.23
2023-01-05T01:55:46.878Z,5.07
2023-01-05T01:58:16.361Z,4.53
2023-01-05T02:00:44.529Z,5.63
2023-01-05T02:03:12.068Z,4.73
2023-01-05T02:05:39.683Z,4.83
2023-01-05T02:08:16.989Z,4.27
2023-01-05T02:11:02.876Z,4.00
2023-01-05T02:13:54.331Z,4.47
2023-01-05T02:16:24.732Z,5.83
2023-01-05T02:18:55.184Z,5.20
2023-01-05T02:21:39.953Z,4.87
2023-01-05T02:24:07.520Z,5.87
2023-01-05T02:26:35.078Z,4.50
2023-01-05T02:29:02.673Z,4.70
2023-01-05T02:31:36.286Z,5.03
2023-01-05T02:34:20.403Z,4.73
2023-01-05T02:36:53.849Z,5.40
2023-01-05T02:39:36.008Z,5.50
2023-01-05T02:42:11.948Z,5.47
2023-01-05T02:44:39.546Z,4.70
2023-01-05T02:47:08.394Z,4.83
2023-01-05T02:49:39.171Z,5.10
2023-01-05T02:52:08.813Z,4.90
2023-01-05T02:54:45.106Z,4.40
2023-01-05T02:57:15.210Z,4.83
2023-01-05T02:59:44.808Z,5.73
2023-01-05T03:02:14.809Z,5.00
2023-01-05T03:05:08.625Z,6.20
2023-01-05T03:07:40.195Z,5.07
2023-01-05T03:10:08.328Z,4.87
2023-01-05T03:12:36.413Z,5.37
2023-01-05T03:15:09.439Z,5.30
2023-01-05T03:17:44.703Z,4.20
2023-01-05T03:20:14.315Z,5.17
2023-01-05T03:22:43.767Z,4.90
2023-01-05T03:25:12.713Z,5.03
2023-01-05T03:27:40.765Z,5.50
2023-01-05T03:30:08.754Z,5.00
2023-01-05T03:32:37.758Z,4.70
2023-01-05T03:35:08.307Z,6.23
2023-01-05T03:37:45.142Z,5.60
2023-01-05T03:40:15.766Z,4.90
2023-01-05T03:42:44.140Z,4.73
2023-01-05T03:45:11.982Z,5.50
2023-01-05T03:47:39.509Z,5.37
2023-01-05T03:50:07.379Z,5.00
2023-01-05T03:52:34.949Z,4.50
2023-01-05T03:55:02.526Z,4.50
2023-01-05T03:57:30.137Z,4.40
2023-01-05T03:59:57.680Z,3.90
2023-01-05T04:02:31.266Z,4.77
2023-01-05T04:04:58.941Z,4.70
2023-01-05T04:07:26.539Z,5.40
2023-01-05T04:09:54.129Z,4.60
2023-01-05T04:12:21.606Z,5.33
2023-01-05T04:14:49.204Z,3.97
2023-01-05T04:17:19.182Z,6.10
2023-01-05T04:19:46.753Z,4.20
2023-01-05T04:22:14.279Z,5.40
2023-01-05T04:24:41.874Z,5.83
2023-01-05T04:27:09.407Z,4.67
2023-01-05T04:29:37.013Z,4.57
2023-01-05T04:32:04.607Z,4.53
2023-01-05T04:34:32.147Z,4.63
2023-01-05T04:36:59.786Z,5.53
2023-01-05T04:39:27.370Z,5.47
2023-01-05T04:41:54.917Z,5.80
2023-01-05T04:44:22.541Z,6.00
2023-01-05T04:46:50.190Z,4.60
2023-01-05T04:49:17.814Z,5.33
2023-01-05T04:51:45.343Z,4.83
2023-01-05T04:54:12.913Z,4.53
2023-01-05T04:56:40.438Z,5.10
2023-01-05T04:59:08.047Z,5.33
2023-01-05T05:01:35.682Z,5.53
2023-01-05T05:04:03.366Z,4.47
2023-01-05T05:06:30.913Z,4.90
2023-01-05T05:08:58.496Z,6.33
2023-01-05T05:11:26.268Z,4.27
2023-01-05T05:13:53.850Z,4.43
2023-01-05T05:16:21.630Z,4.77
2023-01-05T05:18:49.266Z,5.20
2023-01-05T05:21:16.822Z,4.60
2023-01-05T05:23:44.358Z,4.73
2023-01-05T05:26:11.910Z,5.13
2023-01-05T05:28:39.593Z,4.87
2023-01-05T05:31:07.153Z,6.53
2023-01-05T05:33:34.735Z,5.17
2023-01-05T05:36:02.225Z,5.00
2023-01-05T05:38:29.787Z,5.33
2023-01-05T05:41:00.179Z,4.70
2023-01-05T05:43:27.766Z,4.87
2023-01-05T05:45:55.283Z,4.50
2023-01-05T05:48:22.833Z,5.33
2023-01-05T05:50:50.374Z,6.00
2023-01-05T05:53:17.975Z,5.07
2023-01-05T05:55:48.843Z,4.83
2023-01-05T05:58:16.966Z,6.23
2023-01-05T06:00:44.689Z,4.83
2023-01-05T06:03:12.572Z,4.17
2023-01-05T06:05:40.337Z,5.13
2023-01-05T06:08:07.952Z,6.00
2023-01-05T06:10:35.440Z,5.80
2023-01-05T06:13:02.984Z,6.13
2023-01-05T06:15:30.562Z,5.80
2023-01-05T06:17:58.132Z,5.47
2023-01-05T06:20:25.665Z,5.50
2023-01-05T06:22:53.226Z,5.60
2023-01-05T06:25:20.796Z,5.97
2023-01-05T06:27:48.354Z,6.33
2023-01-05T06:30:15.862Z,6.33
2023-01-05T06:32:43.416Z,6.07
2023-01-05T06:35:10.993Z,5.83
2023-01-05T06:37:38.694Z,5.20
2023-01-05T06:40:06.473Z,6.73
2023-01-05T06:42:34.036Z,4.93
2023-01-05T06:45:01.751Z,5.63
2023-01-05T06:47:29.392Z,6.97
2023-01-05T06:49:57.015Z,7.00
2023-01-05T06:52:24.768Z,6.73
2023-01-05T06:54:52.259Z,5.80
2023-01-05T06:57:19.806Z,5.60
2023-01-05T06:59:47.353Z,6.10
2023-01-05T07:02:16.291Z,6.33
2023-01-05T07:04:43.969Z,5.90
2023-01-05T07:07:15.440Z,7.80
2023-01-05T07:09:43.240Z,7.23
2023-01-05T07:12:10.773Z,8.53
2023-01-05T07:14:38.392Z,7.37
2023-01-05T07:17:05.935Z,9.10
2023-01-05T07:19:33.598Z,8.10
2023-01-05T07:22:01.179Z,8.50
2023-01-05T07:24:28.723Z,9.00
2023-01-05T07:26:56.241Z,7.60
2023-01-05T07:29:23.789Z,7.10
2023-01-05T07:31:51.516Z,6.50
2023-01-05T07:34:19.598Z,5.70
2023-01-05T07:36:47.302Z,6.80
2023-01-05T07:39:14.984Z,6.37
2023-01-05T07:41:42.510Z,6.07
2023-01-05T07:44:10.152Z,6.53
2023-01-05T07:46:37.689Z,6.57
2023-01-05T07:49:05.420Z,6.10
2023-01-05T07:51:32.962Z,5.97
2023-01-05T07:54:01.037Z,6.57
2023-01-05T07:56:28.542Z,6.33
2023-01-05T07:58:56.123Z,5.27
2023-01-05T08:01:23.790Z,6.63
2023-01-05T08:03:51.600Z,6.13
2023-01-05T08:06:19.911Z,6.63
2023-01-05T08:08:48.177Z,6.67
2023-01-05T08:11:16.509Z,6.57
2023-01-05T08:13:44.883Z,6.47
2023-01-05T08:16:12.431Z,6.07
2023-01-05T08:18:40.033Z,6.53
2023-01-05T08:21:07.604Z,7.33
2023-01-05T08:23:35.473Z,7.70
2023-01-05T08:26:06.791Z,6.53
2023-01-05T08:28:35.956Z,6.97
2023-01-05T08:31:08.294Z,6.60
2023-01-05T08:33:35.892Z,6.53
2023-01-05T08:36:07.753Z,6.20
2023-01-05T08:38:35.352Z,6.47
2023-01-05T08:41:02.870Z,7.77
2023-01-05T08:43:30.474Z,6.47
2023-01-05T08:45:58.137Z,7.37
2023-01-05T08:48:25.720Z,7.37
2023-01-05T08:50:53.197Z,5.90
2023-01-05T08:53:20.756Z,7.20
2023-01-05T08:55:48.222Z,7.17
2023-01-05T08:58:15.805Z,5.97
2023-01-05T09:00:43.353Z,6.90
2023-01-05T09:03:11.061Z,7.10
2023-01-05T09:05:38.634Z,7.40
2023-01-05T09:08:06.257Z,6.77
2023-01-05T09:10:33.854Z,6.37
2023-01-05T09:13:01.443Z,6.30
2023-01-05T09:15:29.055Z,6.70
2023-01-05T09:17:56.634Z,7.00
2023-01-05T09:20:24.198Z,5.87
2023-01-05T09:22:51.902Z,5.80
2023-01-05T09:25:19.419Z,6.17
2023-01-05T09:27:46.978Z,7.20
2023-01-05T09:30:14.734Z,7.93
2023-01-05T09:32:42.293Z,6.73
2023-01-05T09:35:09.961Z,6.50
2023-01-05T09:37:37.491Z,6.50
2023-01-05T09:40:05.227Z,6.13
2023-01-05T09:42:32.860Z,6.97
2023-01-05T09:45:03.533Z,5.80
2023-01-05T09:47:35.370Z,6.30
2023-01-05T09:50:03.579Z,6.97
2023-01-05T09:52:36.117Z,6.40
2023-01-05T09:55:19.002Z,6.07
2023-01-05T09:58:13.097Z,5.67
2023-01-05T10:00:45.256Z,6.57
2023-01-05T10:03:53.527Z,6.93
2023-01-05T10:06:12.524Z,6.77
2023-01-05T10:08:41.723Z,6.80
2023-01-05T10:11:14.242Z,7.73
2023-01-05T10:13:46.227Z,7.23
2023-01-05T10:16:16.902Z,7.27
2023-01-05T10:18:44.868Z,7.17
2023-01-05T10:21:12.473Z,5.67
2023-01-05T10:23:40.077Z,6.50
2023-01-05T10:26:15.435Z,5.53
2023-01-05T10:28:47.717Z,6.17
2023-01-05T10:31:25.579Z,5.87
2023-01-05T10:33:59.035Z,6.60
2023-01-05T10:37:05.987Z,7.53
2023-01-05T10:39:43.733Z,6.43
2023-01-05T10:42:23.909Z,6.50
2023-01-05T10:44:51.441Z,7.63
2023-01-05T10:47:20.285Z,5.60
2023-01-05T10:49:48.032Z,6.80
2023-01-05T10:52:17.166Z,7.43
2023-01-05T10:54:48.047Z,7.07
2023-01-05T10:57:35.259Z,6.10
2023-01-05T11:00:12.198Z,7.17
2023-01-05T11:02:42.092Z,7.30
2023-01-05T11:05:12.860Z,6.43
2023-01-05T11:07:50.901Z,6.53
2023-01-05T11:10:21.230Z,6.40
2023-01-05T11:12:53.640Z,6.07
2023-01-05T11:15:21.769Z,6.50
2023-01-05T11:17:49.349Z,6.00
2023-01-05T11:20:17.871Z,8.07
2023-01-05T11:22:45.504Z,7.27
2023-01-05T11:25:19.451Z,6.83
2023-01-05T11:27:52.631Z,6.20
2023-01-05T11:30:24.929Z,6.57
2023-01-05T11:32:52.521Z,6.97
2023-01-05T11:35:29.460Z,6.33
2023-01-05T11:37:57.242Z,6.37
2023-01-05T11:40:27.581Z,7.07
2023-01-05T11:42:55.488Z,6.77
2023-01-05T11:45:24.384Z,6.90
2023-01-05T11:47:52.162Z,5.33
2023-01-05T11:50:22.986Z,6.63
2023-01-05T11:52:55.346Z,6.53
2023-01-05T11:55:22.959Z,5.83
2023-01-05T11:57:59.980Z,6.33
2023-01-05T12:00:29.594Z,5.87
2023-01-05T12:03:00.163Z,5.70
2023-01-05T12:05:37.030Z,6.87
2023-01-05T12:08:12.859Z,5.90
2023-01-05T12:11:02.630Z,7.10
2023-01-05T12:13:48.909Z,6.53
2023-01-05T12:16:22.472Z,6.03
2023-01-05T12:18:50.065Z,6.50
2023-01-05T12:21:23.309Z,6.57
2023-01-05T12:23:53.959Z,6.67
2023-01-05T12:26:34.004Z,6.43
2023-01-05T12:30:24.989Z,6.60
2023-01-05T12:35:24.263Z,7.00
2023-01-05T12:37:51.833Z,6.33
2023-01-05T12:40:22.156Z,6.10
2023-01-05T12:43:08.689Z,6.37
2023-01-05T12:45:42.019Z,6.40
2023-01-05T12:48:13.556Z,6.40
2023-01-05T12:50:48.547Z,7.07
2023-01-05T12:53:16.089Z,7.20
2023-01-05T12:55:46.251Z,6.00
2023-01-05T12:58:17.819Z,6.00
2023-01-05T13:00:49.078Z,5.90
2023-01-05T13:03:36.961Z,6.23
2023-01-05T13:06:10.966Z,7.60
2023-01-05T13:08:44.581Z,7.10
2023-01-05T13:11:18.066Z,5.80
2023-01-05T13:13:48.877Z,5.47
2023-01-05T13:16:19.706Z,7.00
2023-01-05T13:18:53.107Z,5.33
2023-01-05T13:21:22.030Z,5.33
2023-01-05T13:23:52.120Z,5.87
2023-01-05T13:26:20.692Z,5.60
2023-01-05T13:28:53.213Z,5.43
2023-01-05T13:31:23.983Z,6.57
2023-01-05T13:34:10.424Z,5.23
2023-01-05T13:36:43.952Z,5.63
2023-01-05T13:39:22.652Z,5.93
2023-01-05T13:41:59.163Z,5.17
2023-01-05T13:44:26.713Z,5.07
2023-01-05T13:46:54.273Z,5.27
2023-01-05T13:49:33.875Z,6.20
2023-01-05T13:52:09.720Z,5.97
2023-01-05T13:54:59.884Z,6.17
2023-01-05T13:57:39.055Z,5.83
2023-01-05T14:00:10.989Z,6.77
2023-01-05T14:02:39.596Z,6.50
2023-01-05T14:05:09.425Z,6.20
2023-01-05T14:07:40.090Z,7.93
2023-01-05T14:10:19.640Z,7.03
2023-01-05T14:12:48.651Z,5.83
2023-01-05T14:15:35.274Z,6.70
2023-01-05T14:18:03.455Z,5.63
2023-01-05T14:20:36.115Z,5.53
2023-01-05T14:23:24.058Z,5.33
2023-01-05T14:25:54.362Z,5.30
2023-01-05T14:28:31.072Z,5.20
2023-01-05T14:31:11.060Z,4.40
2023-01-05T14:33:50.606Z,5.53
2023-01-05T14:36:37.154Z,5.90
2023-01-05T14:39:24.983Z,4.80
2023-01-05T14:41:58.750Z,5.60
2023-01-05T14:44:30.546Z,5.73
2023-01-05T14:46:58.479Z,6.43
2023-01-05T14:49:32.187Z,6.00
2023-01-05T14:52:01.128Z,7.13
2023-01-05T14:54:44.000Z,6.33
2023-01-05T14:57:20.709Z,6.40
2023-01-05T14:59:49.057Z,6.07
2023-01-05T15:02:21.844Z,6.03
2023-01-05T15:04:53.664Z,7.00
2023-01-05T15:07:34.448Z,7.27
2023-01-05T15:10:11.337Z,6.57
2023-01-05T15:12:38.929Z,6.60
2023-01-05T15:15:15.717Z,7.00
2023-01-05T15:17:49.166Z,6.37
2023-01-05T15:20:35.704Z,7.20
2023-01-05T15:23:12.039Z,6.43
2023-01-05T15:25:53.148Z,6.47
2023-01-05T15:28:49.355Z,6.27
2023-01-05T15:31:21.190Z,7.23
2023-01-05T15:33:58.037Z,6.27
2023-01-05T15:36:40.258Z,6.40
2023-01-05T15:39:27.700Z,6.37
2023-01-05T15:41:57.114Z,6.03
2023-01-05T15:44:26.811Z,6.70
2023-01-05T15:46:56.828Z,6.43
2023-01-05T15:49:25.368Z,6.20
2023-01-05T15:51:53.959Z,6.47
2023-01-05T15:54:23.253Z,6.13
2023-01-05T15:56:50.828Z,6.70
2023-01-05T15:59:21.703Z,5.80
2023-01-05T16:01:49.249Z,6.90
2023-01-05T16:04:16.790Z,6.43
2023-01-05T16:06:45.615Z,6.03
2023-01-05T16:09:28.349Z,5.73
2023-01-05T16:11:59.004Z,5.67
2023-01-05T16:14:29.165Z,6.23
2023-01-05T16:17:07.039Z,5.47
2023-01-05T16:19:37.567Z,6.80
2023-01-05T16:22:08.967Z,6.27
2023-01-05T16:24:45.906Z,6.83
2023-01-05T16:27:14.430Z,6.10
2023-01-05T16:29:43.555Z,5.53
2023-01-05T16:32:26.536Z,6.53
2023-01-05T16:35:14.119Z,6.70
2023-01-05T16:37:41.713Z,5.87
2023-01-05T16:40:19.833Z,5.63
2023-01-05T16:42:49.061Z,6.13
2023-01-05T16:45:21.518Z,5.13
2023-01-05T16:47:49.467Z,6.07
2023-01-05T16:50:19.769Z,6.23
2023-01-05T16:52:56.679Z,6.10
2023-01-05T16:55:29.275Z,6.23
2023-01-05T16:57:57.581Z,6.47
2023-01-05T17:00:30.914Z,6.83
2023-01-05T17:02:59.364Z,6.17
2023-01-05T17:05:28.447Z,6.47
2023-01-05T17:08:03.551Z,6.60
2023-01-05T17:10:31.389Z,6.47
2023-01-05T17:13:06.497Z,6.03
2023-01-05T17:15:35.649Z,7.30
2023-01-05T17:18:11.690Z,7.07
2023-01-05T17:20:41.542Z,5.80
2023-01-05T17:23:27.842Z,6.30
2023-01-05T17:25:56.876Z,7.30
2023-01-05T17:28:24.614Z,6.67
2023-01-05T17:30:53.245Z,7.27
2023-01-05T17:33:21.112Z,6.07
2023-01-05T17:35:49.582Z,6.07
2023-01-05T17:38:17.398Z,6.17
2023-01-05T17:40:45.094Z,6.07
2023-01-05T17:43:12.723Z,6.10
2023-01-05T17:45:41.825Z,6.13
2023-01-05T17:48:09.438Z,6.07
2023-01-05T17:50:37.070Z,5.43
2023-01-05T17:53:05.465Z,6.20
2023-01-05T17:55:33.174Z,5.63
2023-01-05T17:58:00.925Z,6.43
2023-01-05T18:00:30.598Z,7.10
2023-01-05T18:02:58.378Z,6.90
2023-01-05T18:05:26.021Z,5.80
2023-01-05T18:07:53.626Z,6.03
2023-01-05T18:10:25.257Z,5.50
2023-01-05T18:12:54.588Z,5.43
2023-01-05T18:15:22.183Z,7.07
2023-01-05T18:17:49.806Z,6.57
2023-01-05T18:20:19.852Z,7.63
2023-01-05T18:22:49.486Z,6.43
2023-01-05T18:25:17.833Z,6.87
2023-01-05T18:27:48.583Z,6.90
2023-01-05T18:30:16.371Z,6.67
2023-01-05T18:32:43.937Z,6.93
2023-01-05T18:35:11.779Z,6.97
2023-01-05T18:37:40.163Z,7.00
2023-01-05T18:40:10.269Z,6.23
2023-01-05T18:42:38.550Z,7.93
2023-01-05T18:45:18.770Z,7.13
2023-01-05T18:47:47.562Z,6.40
2023-01-05T18:50:15.119Z,7.50
2023-01-05T18:52:42.824Z,6.67
2023-01-05T18:55:10.556Z,6.77
2023-01-05T18:57:38.157Z,7.77
2023-01-05T19:00:05.960Z,6.80
2023-01-05T19:02:33.637Z,7.40
2023-01-05T19:05:01.178Z,7.43
2023-01-05T19:07:28.847Z,7.60
2023-01-05T19:09:56.428Z,8.00
2023-01-05T19:12:23.975Z,7.43
2023-01-05T19:14:51.484Z,8.27
2023-01-05T19:17:19.175Z,8.40
2023-01-05T19:19:46.767Z,8.70
2023-01-05T19:22:14.407Z,8.07
2023-01-05T19:24:41.965Z,9.07
2023-01-05T19:27:09.657Z,7.80
2023-01-05T19:29:37.202Z,8.43
2023-01-05T19:32:04.898Z,8.73
2023-01-05T19:34:32.484Z,8.97
2023-01-05T19:37:00.158Z,8.73
2023-01-05T19:39:27.690Z,9.27
2023-01-05T19:41:55.261Z,10.00
2023-01-05T19:44:23.061Z,8.63
2023-01-05T19:46:50.729Z,8.73
2023-01-05T19:49:22.677Z,9.27
2023-01-05T19:51:50.628Z,10.10
2023-01-05T19:54:18.421Z,9.70
2023-01-05T19:56:46.430Z,9.40
2023-01-05T19:59:15.858Z,9.43
2023-01-05T20:01:43.853Z,10.30
2023-01-05T20:04:11.512Z,9.63
2023-01-05T20:06:40.135Z,9.77
2023-01-05T20:09:09.270Z,10.37
2023-01-05T20:11:38.441Z,9.23
2023-01-05T20:14:12.651Z,9.80
2023-01-05T20:16:41.001Z,9.50
2023-01-05T20:19:08.686Z,9.40
2023-01-05T20:21:36.330Z,9.27
2023-01-05T20:24:04.482Z,9.23
2023-01-05T20:26:32.041Z,7.83
2023-01-05T20:28:59.644Z,8.93
2023-01-05T20:31:29.053Z,9.03
2023-01-05T20:33:57.942Z,9.17
2023-01-05T20:36:26.044Z,9.43
2023-01-05T20:38:54.152Z,8.97
2023-01-05T20:41:25.931Z,10.07
2023-01-05T20:43:53.802Z,9.40
2023-01-05T20:46:23.311Z,9.83
2023-01-05T20:48:52.063Z,9.47
2023-01-05T20:51:20.123Z,10.43
2023-01-05T20:53:48.014Z,9.53
2023-01-05T20:56:17.560Z,9.83
2023-01-05T20:58:46.075Z,9.67
2023-01-05T21:01:14.302Z,9.77
2023-01-05T21:03:42.443Z,10.07
2023-01-05T21:06:10.748Z,10.23
2023-01-05T21:08:38.362Z,10.70
2023-01-05T21:11:06.751Z,9.30
2023-01-05T21:13:34.316Z,9.87
2023-01-05T21:16:06.007Z,9.80
2023-01-05T21:18:34.831Z,9.73
2023-01-05T21:21:05.268Z,9.63
2023-01-05T21:23:32.939Z,10.00
2023-01-05T21:26:06.549Z,11.17
2023-01-05T21:28:36.123Z,10.90
2023-01-05T21:31:09.869Z,10.63
2023-01-05T21:33:41.960Z,11.33
2023-01-05T21:36:15.857Z,11.03
2023-01-05T21:39:01.152Z,9.70
2023-01-05T21:41:31.623Z,10.03
2023-01-05T21:43:59.820Z,10.20
2023-01-05T21:46:27.584Z,11.03
2023-01-05T21:48:55.853Z,9.50
2023-01-05T21:51:23.637Z,9.93
2023-01-05T21:53:51.241Z,10.43
2023-01-05T21:56:18.929Z,11.00
2023-01-05T21:58:46.794Z,11.30
2023-01-05T22:01:14.439Z,10.37
2023-01-05T22:03:42.182Z,9.57
2023-01-05T22:06:11.075Z,8.63
2023-01-05T22:08:38.742Z,8.67
2023-01-05T22:11:07.080Z,8.30
2023-01-05T22:13:36.633Z,8.57
2023-01-05T22:16:04.771Z,8.17
2023-01-05T22:18:32.902Z,7.63
2023-01-05T22:21:05.786Z,7.03
2023-01-05T22:23:34.209Z,8.17
2023-01-05T22:26:03.016Z,8.17
2023-01-05T22:28:30.797Z,6.80
2023-01-05T22:31:12.450Z,6.23
2023-01-05T22:33:41.220Z,5.80
2023-01-05T22:36:09.232Z,6.00
2023-01-05T22:38:38.110Z,6.90
2023-01-05T22:41:06.305Z,5.77
2023-01-05T22:43:34.033Z,5.83
2023-01-05T22:46:06.448Z,5.50
2023-01-05T22:48:37.907Z,5.20
2023-01-05T22:51:06.177Z,4.83
2023-01-05T22:53:33.846Z,4.83
2023-01-05T22:56:01.893Z,3.77
2023-01-05T22:58:29.855Z,3.93
2023-01-05T23:01:06.133Z,3.63
2023-01-05T23:03:33.834Z,3.50
2023-01-05T23:06:01.524Z,4.00
2023-01-05T23:08:29.377Z,3.00
2023-01-05T23:11:05.000Z,3.30
2023-01-05T23:13:32.853Z,3.23
2023-01-05T23:16:00.849Z,2.30
2023-01-05T23:18:30.125Z,3.40
2023-01-05T23:21:02.851Z,2.80
2023-01-05T23:23:30.937Z,2.20
2023-01-05T23:25:59.705Z,2.33
2023-01-05T23:28:28.212Z,2.50
2023-01-05T23:30:56.841Z,2.23
2023-01-05T23:36:08.300Z,2.27
2023-01-05T23:38:35.869Z,2.00
2023-01-05T23:41:05.154Z,1.83
2023-01-05T23:43:33.218Z,2.13
2023-01-05T23:46:02.517Z,2.60
2023-01-05T23:48:30.325Z,1.90
2023-01-05T23:50:58.241Z,1.90
2023-01-05T23:53:26.163Z,1.97
2023-01-05T23:55:54.050Z,2.20
2023-01-05T23:58:21.584Z,1.90
